LFSI 271400Z AUTO 11004KT 030V180 9999 ////// 19/04 Q1019

ElémentsDécodage
LFSI Station météo située sur l'aérodrome de SAINT-DIZIER Robinson
271400Z émis le 27 du mois à 14h00 UTC
AUTO Bulletin édité par un automate
11004KT vent du 110°, 04 noeuds
030V180 vent de direction variable entre 030° et 180°
9999 visibilité horizontale supérieure à 10 Km
////// nébulosité (type et hauteur) non disponible
 type de nuage non observable
19/04 température 19°C, point de rosée 04°C
 soit une humidité relative de 37%
Q1019 la pression au niveau de la mer (QNH) est de 1019 hPa